createdAt,value
2019-03-26T00:00:02.874Z,82.5
2019-03-26T00:00:52.629Z,82.4
2019-03-26T00:01:46.310Z,82.5
2019-03-26T00:02:33.969Z,82.4
2019-03-26T00:03:24.005Z,82.3
2019-03-26T00:04:13.972Z,82.2
2019-03-26T00:05:03.968Z,82.2
2019-03-26T00:05:54.019Z,82.2
2019-03-26T00:06:44.037Z,82.2
2019-03-26T00:07:34.929Z,82.3
2019-03-26T00:08:25.314Z,82.4
2019-03-26T00:09:15.135Z,82.4
2019-03-26T00:10:05.278Z,82.5
2019-03-26T00:10:57.303Z,82.6
2019-03-26T00:16:29.712Z,82.5
2019-03-26T00:18:20.025Z,82.5
2019-03-26T00:21:11.053Z,82.6
2019-03-26T00:22:39.733Z,82.5
2019-03-26T00:23:32.113Z,82.5
2019-03-26T00:23:52.452Z,82.5
2019-03-26T00:24:27.946Z,82.5
2019-03-26T00:27:08.059Z,82.5
2019-03-26T00:30:41.424Z,82.5
2019-03-26T00:31:22.435Z,82.4
2019-03-26T00:31:28.070Z,82.4
2019-03-26T00:31:33.013Z,82.4
2019-03-26T00:31:34.587Z,82.4
2019-03-26T00:31:37.137Z,82.5
2019-03-26T00:31:40.337Z,82.5
2019-03-26T00:31:43.928Z,82.4
2019-03-26T00:31:48.547Z,82.4
2019-03-26T00:31:56.939Z,82.5
2019-03-26T00:31:57.174Z,82.4
2019-03-26T00:32:01.014Z,82.4
2019-03-26T00:32:05.191Z,82.4
2019-03-26T00:32:09.867Z,82.4
2019-03-26T00:32:14.584Z,82.4
2019-03-26T00:32:18.709Z,82.4
2019-03-26T00:32:23.560Z,82.4
2019-03-26T00:32:27.561Z,82.4
2019-03-26T00:32:39.839Z,82.4
2019-03-26T00:33:36.049Z,82.4
2019-03-26T00:34:19.975Z,82.4
2019-03-26T00:35:10.589Z,82.4
2019-03-26T00:36:04.178Z,82.4
2019-03-26T00:36:54.849Z,82.4
2019-03-26T00:37:44.419Z,82.4
2019-03-26T00:38:34.419Z,82.4
2019-03-26T00:39:24.482Z,82.5
2019-03-26T00:40:15.081Z,82.5
2019-03-26T00:41:05.000Z,82.5
2019-03-26T00:41:55.052Z,82.5
2019-03-26T00:42:45.064Z,82.5
2019-03-26T00:43:35.014Z,82.5
2019-03-26T00:44:25.000Z,82.4
2019-03-26T00:45:14.984Z,82.5
2019-03-26T00:46:05.045Z,82.5
2019-03-26T00:46:56.067Z,82.5
2019-03-26T00:47:44.987Z,82.6
2019-03-26T00:48:35.633Z,82.6
2019-03-26T00:49:25.595Z,82.7
2019-03-26T00:50:15.619Z,82.7
2019-03-26T00:51:05.632Z,82.7
2019-03-26T00:51:55.650Z,82.9
2019-03-26T00:52:45.647Z,82.9
2019-03-26T00:53:36.645Z,82.9
2019-03-26T00:54:26.617Z,82.9
2019-03-26T00:55:22.259Z,82.9
2019-03-26T00:56:06.631Z,82.9
2019-03-26T00:56:57.429Z,82.8
2019-03-26T00:57:47.404Z,82.8
2019-03-26T00:58:37.376Z,82.8
2019-03-26T00:59:29.251Z,82.7
2019-03-26T01:00:18.897Z,82.8
2019-03-26T01:01:09.265Z,82.8
2019-03-26T01:01:59.457Z,82.8
2019-03-26T01:02:49.955Z,82.8
2019-03-26T01:03:40.320Z,82.8
2019-03-26T01:04:32.900Z,82.8
2019-03-26T01:05:19.962Z,82.8
2019-03-26T01:06:09.955Z,82.9
2019-03-26T01:07:00.726Z,82.9
2019-03-26T01:07:49.937Z,82.8
2019-03-26T01:08:40.554Z,82.8
2019-03-26T01:09:30.750Z,82.8
2019-03-26T01:10:21.648Z,82.8
2019-03-26T01:11:11.640Z,82.9
2019-03-26T01:12:02.623Z,82.8
2019-03-26T01:12:52.586Z,82.8
2019-03-26T01:13:42.576Z,82.8
2019-03-26T01:14:32.576Z,82.9
2019-03-26T01:15:22.576Z,82.9
2019-03-26T01:16:12.590Z,82.9
2019-03-26T01:17:02.768Z,82.9
2019-03-26T01:17:52.603Z,82.8
2019-03-26T01:18:42.744Z,82.9
2019-03-26T01:19:32.554Z,82.9
2019-03-26T01:20:22.796Z,82.9
2019-03-26T01:21:13.149Z,82.9
2019-03-26T01:22:03.702Z,82.9
2019-03-26T01:22:53.686Z,82.9
2019-03-26T01:23:43.746Z,82.9
2019-03-26T01:24:35.154Z,83
2019-03-26T01:25:25.383Z,83.1
2019-03-26T01:26:15.389Z,83.1
2019-03-26T01:27:05.397Z,83
2019-03-26T01:27:55.421Z,83
2019-03-26T01:28:46.344Z,83
2019-03-26T01:29:36.206Z,83
2019-03-26T01:30:27.260Z,83
2019-03-26T01:31:17.300Z,83
2019-03-26T01:32:08.311Z,83
2019-03-26T01:32:58.159Z,83
2019-03-26T01:33:48.131Z,82.9
2019-03-26T01:34:45.664Z,83
2019-03-26T01:35:28.168Z,83.1
2019-03-26T01:36:18.158Z,83.1
2019-03-26T01:37:08.167Z,83.2
2019-03-26T01:37:58.297Z,83.2
2019-03-26T01:38:48.116Z,83.2
2019-03-26T01:39:38.107Z,83.2
2019-03-26T01:40:28.138Z,83.1
2019-03-26T01:41:18.132Z,83.1
2019-03-26T01:42:08.123Z,83.1
2019-03-26T01:42:58.134Z,83
2019-03-26T01:43:48.114Z,83
2019-03-26T01:44:38.547Z,83
2019-03-26T01:45:28.908Z,83
2019-03-26T01:46:18.909Z,83
2019-03-26T01:47:08.875Z,83.1
2019-03-26T01:47:59.037Z,83.1
2019-03-26T01:48:48.907Z,83.1
2019-03-26T01:49:38.903Z,83.1
2019-03-26T01:50:28.889Z,83.1
2019-03-26T01:51:20.108Z,83.1
2019-03-26T01:52:10.776Z,83.1
2019-03-26T01:53:01.453Z,83.1
2019-03-26T01:53:51.339Z,83
2019-03-26T01:54:41.322Z,83
2019-03-26T01:55:31.329Z,83
2019-03-26T01:56:22.439Z,83
2019-03-26T01:57:12.560Z,83
2019-03-26T01:58:03.032Z,83
2019-03-26T01:58:52.496Z,83
2019-03-26T01:59:42.436Z,82.9
2019-03-26T02:00:32.470Z,82.9
2019-03-26T02:01:22.422Z,82.9
2019-03-26T02:02:13.099Z,82.9
2019-03-26T02:03:06.559Z,82.9
2019-03-26T02:03:53.599Z,82.9
2019-03-26T02:04:43.283Z,82.9
2019-03-26T02:05:33.337Z,82.8
2019-03-26T02:06:23.286Z,82.8
2019-03-26T02:07:13.342Z,82.7
2019-03-26T02:08:03.397Z,82.8
2019-03-26T02:08:53.287Z,82.8
2019-03-26T02:09:43.318Z,82.8
2019-03-26T02:10:33.290Z,82.8
2019-03-26T02:11:23.390Z,82.7
2019-03-26T02:12:13.294Z,82.7
2019-03-26T02:13:03.360Z,82.7
2019-03-26T02:13:53.268Z,82.7
2019-03-26T02:14:44.527Z,82.7
2019-03-26T02:15:35.620Z,82.7
2019-03-26T02:16:25.597Z,82.7
2019-03-26T02:17:16.182Z,82.7
2019-03-26T02:18:08.073Z,82.7
2019-03-26T02:18:56.247Z,82.6
2019-03-26T02:19:46.361Z,82.6
2019-03-26T02:20:36.214Z,82.6
2019-03-26T02:21:26.206Z,82.5
2019-03-26T02:22:16.239Z,82.5
2019-03-26T02:23:10.863Z,82.5
2019-03-26T02:23:57.094Z,82.6
2019-03-26T02:24:47.367Z,82.5
2019-03-26T02:25:37.354Z,82.5
2019-03-26T02:26:27.392Z,82.5
2019-03-26T02:27:17.368Z,82.4
2019-03-26T02:28:10.387Z,82.3
2019-03-26T02:28:57.364Z,82.4
2019-03-26T02:29:47.383Z,82.4
2019-03-26T02:30:38.033Z,82.3
2019-03-26T02:31:27.998Z,82.3
2019-03-26T02:32:18.023Z,82.3
2019-03-26T02:33:08.317Z,82.3
2019-03-26T02:33:57.950Z,82.4
2019-03-26T02:34:47.947Z,82.3
2019-03-26T02:35:38.505Z,82.2
2019-03-26T02:36:28.942Z,82.2
2019-03-26T02:37:19.584Z,82.2
2019-03-26T02:38:12.389Z,82.1
2019-03-26T02:38:59.784Z,82.1
2019-03-26T02:39:50.374Z,82.1
2019-03-26T02:40:41.068Z,82.1
2019-03-26T02:41:31.112Z,82
2019-03-26T02:42:21.194Z,82
2019-03-26T02:43:16.074Z,81.9
2019-03-26T02:44:01.841Z,81.9
2019-03-26T02:44:51.793Z,81.9
2019-03-26T02:45:41.842Z,81.8
2019-03-26T02:46:32.451Z,81.8
2019-03-26T02:47:22.360Z,81.8
2019-03-26T02:48:13.934Z,81.8
2019-03-26T02:49:02.932Z,81.8
2019-03-26T02:49:52.898Z,81.8
2019-03-26T02:50:42.953Z,81.7
2019-03-26T02:51:33.013Z,81.7
2019-03-26T02:52:22.885Z,81.7
2019-03-26T02:53:16.254Z,81.7
2019-03-26T02:54:02.950Z,81.6
2019-03-26T02:54:52.917Z,81.6
2019-03-26T02:55:42.899Z,81.6
2019-03-26T02:56:33.663Z,81.7
2019-03-26T02:57:23.688Z,81.5
2019-03-26T02:58:16.292Z,81.5
2019-03-26T02:59:03.824Z,81.5
2019-03-26T02:59:53.663Z,81.4
2019-03-26T03:00:44.261Z,81.4
2019-03-26T03:01:34.610Z,81.4
2019-03-26T03:02:24.671Z,81.3
2019-03-26T03:03:17.556Z,81.3
2019-03-26T03:04:05.178Z,81.3
2019-03-26T03:04:55.141Z,81.3
2019-03-26T03:05:45.165Z,81.3
2019-03-26T03:06:35.116Z,81.3
2019-03-26T03:07:25.958Z,81.2
2019-03-26T03:08:17.626Z,81.1
2019-03-26T03:09:06.012Z,81.1
2019-03-26T03:09:56.003Z,81
2019-03-26T03:10:46.023Z,81
2019-03-26T03:11:36.024Z,81
2019-03-26T03:12:25.997Z,80.9
2019-03-26T03:13:18.474Z,80.9
2019-03-26T03:14:05.966Z,80.9
2019-03-26T03:14:56.857Z,80.8
2019-03-26T03:15:46.618Z,80.9
2019-03-26T03:16:36.607Z,80.8
2019-03-26T03:17:26.562Z,80.9
2019-03-26T03:18:19.035Z,80.8
2019-03-26T03:19:06.601Z,80.8
2019-03-26T03:19:57.113Z,80.7
2019-03-26T03:20:47.096Z,80.7
2019-03-26T03:21:37.100Z,80.6
2019-03-26T03:22:27.145Z,80.6
2019-03-26T03:23:19.972Z,80.6
2019-03-26T03:24:07.689Z,80.6
2019-03-26T03:24:57.949Z,80.6
2019-03-26T03:25:47.678Z,80.6
2019-03-26T03:26:37.667Z,80.5
2019-03-26T03:27:28.507Z,80.5
2019-03-26T03:28:20.987Z,80.5
2019-03-26T03:29:09.364Z,80.4
2019-03-26T03:29:59.408Z,80.5
2019-03-26T03:30:49.329Z,80.4
2019-03-26T03:31:40.134Z,80.4
2019-03-26T03:32:30.017Z,80.4
2019-03-26T03:33:21.930Z,80.4
2019-03-26T03:34:11.435Z,80.5
2019-03-26T03:35:01.416Z,80.4
2019-03-26T03:35:53.007Z,80.3
2019-03-26T03:36:41.431Z,80.4
2019-03-26T03:37:31.360Z,80.4
2019-03-26T03:38:22.770Z,80.3
2019-03-26T03:39:12.192Z,80.2
2019-03-26T03:40:02.204Z,80.2
2019-03-26T03:40:52.243Z,80.2
2019-03-26T03:41:42.298Z,80.2
2019-03-26T03:42:32.352Z,80
2019-03-26T03:43:23.512Z,79.9
2019-03-26T03:44:12.214Z,79.9
2019-03-26T03:45:02.283Z,80
2019-03-26T03:45:52.982Z,80
2019-03-26T03:46:42.934Z,79.8
2019-03-26T03:47:32.907Z,79.8
2019-03-26T03:48:24.668Z,80.1
2019-03-26T03:49:14.912Z,79.9
2019-03-26T03:50:04.938Z,79.8
2019-03-26T03:50:54.903Z,79.7
2019-03-26T03:51:45.520Z,79.6
2019-03-26T03:52:35.442Z,79.7
2019-03-26T03:53:28.680Z,79.6
2019-03-26T03:54:15.680Z,79.7
2019-03-26T03:55:06.549Z,79.7
2019-03-26T03:55:56.418Z,79.6
2019-03-26T03:56:46.655Z,79.6
2019-03-26T03:57:37.669Z,79.6
2019-03-26T03:58:27.676Z,79.5
2019-03-26T03:59:17.592Z,79.6
2019-03-26T04:00:07.691Z,79.6
2019-03-26T04:00:57.597Z,79.4
2019-03-26T04:01:47.598Z,79.5
2019-03-26T04:02:37.607Z,79.4
2019-03-26T04:03:30.199Z,79.4
2019-03-26T04:04:18.249Z,79.3
2019-03-26T04:05:11.884Z,79
2019-03-26T04:06:09.261Z,78.8
2019-03-26T04:06:51.804Z,78.5
2019-03-26T04:07:41.785Z,78.5
2019-03-26T04:08:32.010Z,78.4
2019-03-26T04:09:21.813Z,78.3
2019-03-26T04:10:11.848Z,77.8
2019-03-26T04:11:02.327Z,77.7
2019-03-26T04:11:52.051Z,77.6
2019-03-26T04:12:42.007Z,77.5
2019-03-26T04:13:32.254Z,77.6
2019-03-26T04:14:21.998Z,77.6
2019-03-26T04:15:12.035Z,77.6
2019-03-26T04:16:02.087Z,77.6
2019-03-26T04:16:52.070Z,77.7
2019-03-26T04:17:42.112Z,77.7
2019-03-26T04:18:32.079Z,77.6
2019-03-26T04:19:22.245Z,77.6
2019-03-26T04:20:12.061Z,77.4
2019-03-26T04:21:02.494Z,77.5
2019-03-26T04:21:52.158Z,77.5
2019-03-26T04:22:42.070Z,77.3
2019-03-26T04:23:32.160Z,77.2
2019-03-26T04:24:22.090Z,77.2
2019-03-26T04:25:12.057Z,77.2
2019-03-26T04:26:02.026Z,77.2
2019-03-26T04:26:52.628Z,77.1
2019-03-26T04:27:42.589Z,77.1
2019-03-26T04:28:32.878Z,77.1
2019-03-26T04:29:22.551Z,77.2
2019-03-26T04:30:12.626Z,77.2
2019-03-26T04:31:02.665Z,77.4
2019-03-26T04:31:52.585Z,77.4
2019-03-26T04:32:43.716Z,77.5
2019-03-26T04:33:34.642Z,77.3
2019-03-26T04:34:25.250Z,77
2019-03-26T04:35:15.289Z,77
2019-03-26T04:36:05.297Z,77
2019-03-26T04:36:55.263Z,77
2019-03-26T04:37:45.264Z,77
2019-03-26T04:38:35.217Z,77.1
2019-03-26T04:39:25.305Z,77.1
2019-03-26T04:40:15.445Z,77.2
2019-03-26T04:41:05.791Z,77.2
2019-03-26T04:41:55.843Z,77
2019-03-26T04:42:45.812Z,76.7
2019-03-26T04:43:35.829Z,76.6
2019-03-26T04:44:25.971Z,76.5
2019-03-26T04:45:15.985Z,76.3
2019-03-26T04:46:06.315Z,76.2
2019-03-26T04:46:56.340Z,75.9
2019-03-26T04:47:47.515Z,76
2019-03-26T04:48:37.495Z,76
2019-03-26T04:49:27.504Z,76
2019-03-26T04:50:17.531Z,76
2019-03-26T04:51:08.290Z,76.1
2019-03-26T04:51:59.206Z,76.2
2019-03-26T04:52:49.616Z,76.3
2019-03-26T04:53:39.511Z,76.4
2019-03-26T04:54:33.826Z,76.4
2019-03-26T04:55:20.571Z,76.4
2019-03-26T04:56:10.591Z,76.3
2019-03-26T04:57:00.597Z,76.5
2019-03-26T04:57:50.650Z,76.6
2019-03-26T04:58:43.927Z,76.7
2019-03-26T04:59:34.590Z,76.7
2019-03-26T05:00:22.432Z,76.7
2019-03-26T05:01:14.992Z,76.6
2019-03-26T05:02:05.886Z,76.6
2019-03-26T05:02:55.934Z,76.6
2019-03-26T05:03:45.899Z,76.5
2019-03-26T05:04:35.858Z,76.2
2019-03-26T05:05:25.884Z,76.1
2019-03-26T05:06:15.855Z,76.1
2019-03-26T05:07:05.897Z,76.1
2019-03-26T05:07:55.912Z,76.1
2019-03-26T05:08:46.848Z,76.1
2019-03-26T05:09:39.508Z,76.3
2019-03-26T05:10:27.247Z,76.3
2019-03-26T05:11:17.245Z,76.1
2019-03-26T05:12:09.365Z,76.1
2019-03-26T05:12:59.386Z,76.2
2019-03-26T05:13:49.446Z,76.1
2019-03-26T05:14:42.677Z,76.2
2019-03-26T05:15:31.153Z,76.3
2019-03-26T05:16:21.187Z,76.5
2019-03-26T05:17:11.218Z,76.5
2019-03-26T05:18:01.211Z,76.4
2019-03-26T05:18:51.319Z,76.3
2019-03-26T05:19:41.812Z,76.4
2019-03-26T05:20:31.234Z,76.4
2019-03-26T05:21:21.395Z,76.3
2019-03-26T05:22:23.442Z,76.4
2019-03-26T05:23:02.187Z,76.5
2019-03-26T05:23:52.264Z,76.7
2019-03-26T05:24:45.649Z,76.8
2019-03-26T05:25:38.052Z,76.7
2019-03-26T05:26:25.667Z,76.8
2019-03-26T05:27:15.686Z,76.9
2019-03-26T05:28:05.709Z,76.8
2019-03-26T05:28:55.723Z,76.7
2019-03-26T05:29:45.687Z,76.8
2019-03-26T05:30:38.906Z,76.8
2019-03-26T05:31:26.793Z,76.8
2019-03-26T05:32:16.858Z,76.8
2019-03-26T05:33:06.823Z,76.8
2019-03-26T05:33:56.869Z,76.8
2019-03-26T05:34:46.800Z,76.9
2019-03-26T05:35:37.578Z,77.3
2019-03-26T05:36:27.308Z,77.4
2019-03-26T05:37:17.451Z,77.4
2019-03-26T05:38:09.112Z,77.4
2019-03-26T05:38:59.379Z,77.4
2019-03-26T05:39:49.577Z,77.4
2019-03-26T05:40:41.044Z,77.3
2019-03-26T05:41:29.616Z,77.4
2019-03-26T05:42:20.591Z,77.7
2019-03-26T05:43:12.488Z,77.5
2019-03-26T05:44:02.516Z,77.6
2019-03-26T05:44:52.768Z,77.5
2019-03-26T05:45:45.227Z,77.5
2019-03-26T05:46:32.787Z,77.5
2019-03-26T05:47:23.908Z,77.6
2019-03-26T05:48:13.822Z,77.6
2019-03-26T05:49:04.381Z,77.6
2019-03-26T05:49:54.073Z,77.6
2019-03-26T05:50:44.048Z,77.6
2019-03-26T05:51:34.046Z,77.8
2019-03-26T05:52:24.058Z,77.8
2019-03-26T05:53:14.110Z,78
2019-03-26T05:54:04.096Z,78
2019-03-26T05:54:54.106Z,78
2019-03-26T05:55:46.194Z,78
2019-03-26T05:56:34.324Z,78
2019-03-26T05:57:24.408Z,78.1
2019-03-26T05:58:14.326Z,78.1
2019-03-26T05:59:04.347Z,78.3
2019-03-26T05:59:54.309Z,78.3
2019-03-26T06:00:44.618Z,78.3
2019-03-26T06:01:34.339Z,78.3
2019-03-26T06:02:24.760Z,78.3
2019-03-26T06:03:14.534Z,78.4
2019-03-26T06:04:04.556Z,78.4
2019-03-26T06:04:54.821Z,78.4
2019-03-26T06:05:45.729Z,78.3
2019-03-26T06:06:35.070Z,78.4
2019-03-26T06:07:25.142Z,78.4
2019-03-26T06:08:15.111Z,78.4
2019-03-26T06:09:05.097Z,78.4
2019-03-26T06:09:55.114Z,78.5
2019-03-26T06:10:45.646Z,78.4
2019-03-26T06:11:35.057Z,78.4
2019-03-26T06:12:25.261Z,78.4
2019-03-26T06:13:15.147Z,78.4
2019-03-26T06:14:05.109Z,78.4
2019-03-26T06:14:55.170Z,78.4
2019-03-26T06:15:46.329Z,78.4
2019-03-26T06:16:38.436Z,78.4
2019-03-26T06:17:25.113Z,78.5
2019-03-26T06:18:15.163Z,78.3
2019-03-26T06:19:05.118Z,78.5
2019-03-26T06:19:55.104Z,78.3
2019-03-26T06:20:47.042Z,78.2
2019-03-26T06:21:35.063Z,78.1
2019-03-26T06:22:25.083Z,78.1
2019-03-26T06:23:18.405Z,78.2
2019-03-26T06:24:09.285Z,78.2
2019-03-26T06:24:59.310Z,78.3
2019-03-26T06:25:49.264Z,78.2
2019-03-26T06:26:39.354Z,78.3
2019-03-26T06:27:29.939Z,78.3
2019-03-26T06:28:19.867Z,78.3
2019-03-26T06:29:09.910Z,78.2
2019-03-26T06:29:59.943Z,78.2
2019-03-26T06:30:49.833Z,78.3
2019-03-26T06:31:39.855Z,78.5
2019-03-26T06:32:29.824Z,78.7
2019-03-26T06:33:20.017Z,78.7
2019-03-26T06:34:10.573Z,78.5
2019-03-26T06:35:02.344Z,78.5
2019-03-26T06:35:52.461Z,78.6
2019-03-26T06:36:42.142Z,78.5
2019-03-26T06:37:32.254Z,78.5
2019-03-26T06:38:22.231Z,78.5
2019-03-26T06:39:12.293Z,78.6
2019-03-26T06:40:02.157Z,78.4
2019-03-26T06:40:52.308Z,78.1
2019-03-26T06:41:42.445Z,78
2019-03-26T06:42:32.787Z,77.9
2019-03-26T06:43:22.642Z,77.8
2019-03-26T06:44:12.907Z,77.7
2019-03-26T06:45:02.891Z,77.6
2019-03-26T06:45:52.934Z,77.5
2019-03-26T06:46:42.934Z,77.6
2019-03-26T06:47:32.913Z,77.5
2019-03-26T06:48:22.908Z,77.5
2019-03-26T06:49:12.920Z,77.6
2019-03-26T06:50:02.930Z,77.6
2019-03-26T06:50:53.191Z,77.7
2019-03-26T06:51:42.916Z,77.6
2019-03-26T06:52:33.264Z,77.6
2019-03-26T06:53:22.899Z,77.5
2019-03-26T06:54:12.913Z,77.5
2019-03-26T06:55:02.973Z,77.5
2019-03-26T06:55:55.200Z,77.5
2019-03-26T06:56:42.906Z,77.5
2019-03-26T06:57:35.672Z,77.5
2019-03-26T06:58:22.960Z,77.4
2019-03-26T06:59:14.427Z,77.4
2019-03-26T07:00:06.910Z,77.5
2019-03-26T07:00:54.818Z,77.4
2019-03-26T07:01:44.690Z,77.3
2019-03-26T07:02:34.654Z,77.3
2019-03-26T07:03:25.220Z,77.3
2019-03-26T07:04:15.250Z,77.1
2019-03-26T07:05:05.309Z,77
2019-03-26T07:05:56.571Z,76.9
2019-03-26T07:06:45.307Z,76.8
2019-03-26T07:07:35.360Z,76.8
2019-03-26T07:08:25.253Z,76.9
2019-03-26T07:09:15.278Z,76.8
2019-03-26T07:10:05.236Z,76.9
2019-03-26T07:10:56.525Z,76.9
2019-03-26T07:11:45.247Z,76.8
2019-03-26T07:12:35.290Z,76.8
2019-03-26T07:13:25.235Z,76.8
2019-03-26T07:14:15.267Z,76.7
2019-03-26T07:15:05.361Z,76.8
2019-03-26T07:15:55.466Z,76.8
2019-03-26T07:16:45.288Z,76.6
2019-03-26T07:17:35.259Z,76.5
2019-03-26T07:18:25.275Z,76.2
2019-03-26T07:19:15.328Z,76.1
2019-03-26T07:20:05.309Z,76
2019-03-26T07:20:56.203Z,76
2019-03-26T07:21:49.689Z,76
2019-03-26T07:22:35.271Z,76
2019-03-26T07:23:25.370Z,76.2
2019-03-26T07:24:15.274Z,76.1
2019-03-26T07:25:05.356Z,76.1
2019-03-26T07:25:57.146Z,75.8
2019-03-26T07:26:45.261Z,75.8
2019-03-26T07:27:35.277Z,75.4
2019-03-26T07:28:25.291Z,75.4
2019-03-26T07:29:15.425Z,75.4
2019-03-26T07:30:05.275Z,75.2
2019-03-26T07:30:55.382Z,75.1
2019-03-26T07:31:45.270Z,75.1
2019-03-26T07:32:35.225Z,75.1
2019-03-26T07:33:25.305Z,75.1
2019-03-26T07:34:15.264Z,74.9
2019-03-26T07:35:05.262Z,74.8
2019-03-26T07:35:55.248Z,74.8
2019-03-26T07:36:45.257Z,74.8
2019-03-26T07:37:44.821Z,74.8
2019-03-26T07:38:25.235Z,74.4
2019-03-26T07:39:15.272Z,74.5
2019-03-26T07:40:05.285Z,74.6
2019-03-26T07:40:56.240Z,74.6
2019-03-26T07:41:46.166Z,74.3
2019-03-26T07:42:36.155Z,74.3
2019-03-26T07:43:26.164Z,74.4
2019-03-26T07:44:16.176Z,74.6
2019-03-26T07:45:06.140Z,74.6
2019-03-26T07:45:56.105Z,74.7
2019-03-26T07:46:46.206Z,74.9
2019-03-26T07:47:36.182Z,75.1
2019-03-26T07:48:26.316Z,75.1
2019-03-26T07:49:16.154Z,75.1
2019-03-26T07:50:06.144Z,74.8
2019-03-26T07:50:56.415Z,74.7
2019-03-26T07:51:47.746Z,74.3
2019-03-26T07:52:37.852Z,74.3
2019-03-26T07:53:27.850Z,74.4
2019-03-26T07:54:17.987Z,74.4
2019-03-26T07:55:11.781Z,74.5
2019-03-26T07:56:01.947Z,75.4
2019-03-26T07:56:51.719Z,75.2
2019-03-26T07:57:41.670Z,75.1
2019-03-26T07:58:33.153Z,75.3
2019-03-26T07:59:21.730Z,75.4
2019-03-26T08:00:11.765Z,75.3
2019-03-26T08:01:02.805Z,75.3
2019-03-26T08:01:51.669Z,75.1
2019-03-26T08:02:41.789Z,75.1
2019-03-26T08:03:31.716Z,75
2019-03-26T08:04:21.744Z,75.1
2019-03-26T08:05:11.694Z,75
2019-03-26T08:06:03.678Z,75.1
2019-03-26T08:06:51.999Z,75.2
2019-03-26T08:07:41.932Z,75.1
2019-03-26T08:08:32.213Z,74.9
2019-03-26T08:09:22.350Z,74.7
2019-03-26T08:10:12.230Z,74.7
2019-03-26T08:11:03.858Z,75.1
2019-03-26T08:11:52.187Z,75.1
2019-03-26T08:12:42.209Z,75.3
2019-03-26T08:13:32.249Z,75.8
2019-03-26T08:14:22.230Z,75.4
2019-03-26T08:15:12.278Z,75
2019-03-26T08:16:03.541Z,74.7
2019-03-26T08:16:52.288Z,74.7
2019-03-26T08:17:45.198Z,74.1
2019-03-26T08:18:32.241Z,73.9
2019-03-26T08:19:22.223Z,72.8
2019-03-26T08:20:12.665Z,72.4
2019-03-26T08:21:02.230Z,71.9
2019-03-26T08:21:52.265Z,72
2019-03-26T08:22:42.204Z,71.1
2019-03-26T08:23:32.237Z,71.4
2019-03-26T08:24:22.214Z,71.6
2019-03-26T08:25:12.257Z,70.9
2019-03-26T08:26:02.305Z,70.1
2019-03-26T08:26:52.322Z,69.1
2019-03-26T08:27:42.178Z,67.8
2019-03-26T08:28:32.206Z,67.5
2019-03-26T08:29:22.221Z,67.2
2019-03-26T08:30:12.216Z,67.5
2019-03-26T08:31:02.232Z,67.5
2019-03-26T08:31:52.216Z,67.9
2019-03-26T08:32:42.186Z,66.3
2019-03-26T08:33:32.154Z,65.9
2019-03-26T08:34:22.198Z,65.5
2019-03-26T08:35:12.564Z,65.4
2019-03-26T08:36:02.168Z,64.3
2019-03-26T08:36:52.205Z,64.1
2019-03-26T08:37:42.682Z,63.9
2019-03-26T08:38:33.578Z,64.6
2019-03-26T08:39:22.207Z,64.6
2019-03-26T08:40:12.521Z,64.4
2019-03-26T08:41:02.295Z,64.5
2019-03-26T08:41:52.224Z,64.7
2019-03-26T08:42:42.240Z,64.1
2019-03-26T08:43:32.290Z,64.5
2019-03-26T08:44:22.321Z,63.2
2019-03-26T08:45:12.239Z,63.4
2019-03-26T08:46:03.309Z,63.6
2019-03-26T08:46:53.268Z,63.7
2019-03-26T08:47:43.270Z,63.2
2019-03-26T08:48:33.273Z,63.6
2019-03-26T08:49:23.265Z,63.8
2019-03-26T08:50:13.521Z,63.2
2019-03-26T08:51:04.404Z,63
2019-03-26T08:51:54.293Z,63.3
2019-03-26T08:52:44.881Z,63.4
2019-03-26T08:53:34.895Z,62.9
2019-03-26T08:54:24.822Z,63.3
2019-03-26T08:55:14.788Z,62.9
2019-03-26T08:56:04.964Z,63
2019-03-26T08:56:54.945Z,63.1
2019-03-26T08:57:44.808Z,63.1
2019-03-26T08:58:34.901Z,61.8
2019-03-26T08:59:24.803Z,62.2
2019-03-26T09:00:14.768Z,62.4
2019-03-26T09:01:04.822Z,62.6
2019-03-26T09:01:54.792Z,61.9
2019-03-26T09:02:44.802Z,62.4
2019-03-26T09:03:34.800Z,62.8
2019-03-26T09:04:26.902Z,63.1
2019-03-26T09:05:14.793Z,63.1
2019-03-26T09:06:04.819Z,62.8
2019-03-26T09:06:54.805Z,63
2019-03-26T09:07:44.797Z,63
2019-03-26T09:08:34.823Z,63.1
2019-03-26T09:09:24.896Z,63.3
2019-03-26T09:10:15.968Z,63
2019-03-26T09:11:04.923Z,62.8
2019-03-26T09:11:54.816Z,62.6
2019-03-26T09:12:44.844Z,62.5
2019-03-26T09:13:34.786Z,62.8
2019-03-26T09:14:24.794Z,63.2
2019-03-26T09:15:15.045Z,62.4
2019-03-26T09:16:04.789Z,62.7
2019-03-26T09:16:54.999Z,62.9
2019-03-26T09:17:44.995Z,61.9
2019-03-26T09:18:34.792Z,62.1
2019-03-26T09:19:24.811Z,62.2
2019-03-26T09:20:15.754Z,62.2
2019-03-26T09:21:04.811Z,61.8
2019-03-26T09:21:54.773Z,61.4
2019-03-26T09:22:44.790Z,61.1
2019-03-26T09:23:34.826Z,60.5
2019-03-26T09:24:24.869Z,61
2019-03-26T09:25:15.030Z,61.5
2019-03-26T09:26:21.401Z,61.7
2019-03-26T09:26:54.776Z,61.2
2019-03-26T09:27:44.759Z,61
2019-03-26T09:28:34.827Z,61.3
2019-03-26T09:29:24.832Z,60.3
2019-03-26T09:30:17.247Z,60.3
2019-03-26T09:31:04.839Z,60.2
2019-03-26T09:31:54.798Z,60.6
2019-03-26T09:32:44.811Z,60.9
2019-03-26T09:33:34.787Z,61.1
2019-03-26T09:34:24.821Z,61.4
2019-03-26T09:35:17.842Z,61.5
2019-03-26T09:36:04.807Z,62
2019-03-26T09:36:54.806Z,62.4
2019-03-26T09:37:44.920Z,62.2
2019-03-26T09:38:38.994Z,61.4
2019-03-26T09:39:24.859Z,61.4
2019-03-26T09:40:15.097Z,61.4
2019-03-26T09:41:05.050Z,61.4
2019-03-26T09:41:55.096Z,62.2
2019-03-26T09:42:45.083Z,61.9
2019-03-26T09:43:35.039Z,63.1
2019-03-26T09:44:25.052Z,62.6
2019-03-26T09:45:15.066Z,62.9
2019-03-26T09:46:05.075Z,63.2
2019-03-26T09:46:55.060Z,62.5
2019-03-26T09:47:45.044Z,60.3
2019-03-26T09:48:35.058Z,60.7
2019-03-26T09:49:25.084Z,62
2019-03-26T09:50:15.017Z,62.3
2019-03-26T09:51:05.088Z,61.1
2019-03-26T09:51:55.061Z,61.7
2019-03-26T09:52:45.082Z,61.8
2019-03-26T09:53:35.030Z,60.5
2019-03-26T09:54:25.151Z,61.3
2019-03-26T09:55:15.040Z,60.9
2019-03-26T09:56:05.042Z,60.9
2019-03-26T09:56:55.200Z,61.1
2019-03-26T09:57:45.209Z,59.9
2019-03-26T09:58:35.258Z,60
2019-03-26T09:59:26.389Z,60.7
2019-03-26T10:00:15.149Z,61.8
2019-03-26T10:01:05.325Z,62.4
2019-03-26T10:01:55.449Z,63
2019-03-26T10:02:45.340Z,62.9
2019-03-26T10:03:35.014Z,63.3
2019-03-26T10:04:26.979Z,62
2019-03-26T10:05:15.070Z,62.3
2019-03-26T10:06:05.169Z,61.9
2019-03-26T10:06:55.096Z,62.3
2019-03-26T10:07:45.103Z,62.5
2019-03-26T10:08:35.101Z,62.3
2019-03-26T10:09:25.172Z,62.1
2019-03-26T10:10:15.096Z,62
2019-03-26T10:11:37.469Z,62.2
2019-03-26T10:11:55.110Z,62.7
2019-03-26T10:12:45.073Z,62.6
2019-03-26T10:13:36.407Z,63.1
2019-03-26T10:14:27.081Z,62.4
2019-03-26T10:15:15.093Z,61.8
2019-03-26T10:16:05.076Z,61.7
2019-03-26T10:16:55.059Z,61.8
2019-03-26T10:17:45.068Z,61.3
2019-03-26T10:18:35.053Z,61.9
2019-03-26T10:19:25.259Z,62.3
2019-03-26T10:20:15.126Z,62.5
2019-03-26T10:21:05.021Z,61.7
2019-03-26T10:21:55.117Z,61.4
2019-03-26T10:22:45.096Z,59.8
2019-03-26T10:23:35.067Z,60.5
2019-03-26T10:24:26.091Z,60.6
2019-03-26T10:25:15.087Z,61
2019-03-26T10:26:05.089Z,60.5
2019-03-26T10:26:55.050Z,61.1
2019-03-26T10:27:45.206Z,61.5
2019-03-26T10:28:35.399Z,61.5
2019-03-26T10:29:30.341Z,61.6
2019-03-26T10:30:15.309Z,61.4
2019-03-26T10:31:05.297Z,61.4
2019-03-26T10:31:55.325Z,61.8
2019-03-26T10:32:45.309Z,62.4
2019-03-26T10:33:35.304Z,62
2019-03-26T10:34:27.581Z,61.8
2019-03-26T10:35:15.312Z,61.8
2019-03-26T10:36:05.334Z,62.1
2019-03-26T10:36:55.291Z,62.3
2019-03-26T10:37:45.303Z,62.5
2019-03-26T10:38:35.328Z,62.2
2019-03-26T10:39:28.093Z,62.1
2019-03-26T10:40:15.311Z,62.5
2019-03-26T10:41:05.306Z,62.2
2019-03-26T10:41:55.277Z,61.5
2019-03-26T10:42:45.445Z,61.9
2019-03-26T10:43:35.367Z,62.1
2019-03-26T10:44:25.352Z,62.2
2019-03-26T10:45:15.333Z,62.1
2019-03-26T10:46:05.313Z,61.4
2019-03-26T10:46:55.302Z,61.5
2019-03-26T10:47:45.382Z,61.3
2019-03-26T10:48:35.359Z,61.1
2019-03-26T10:49:25.337Z,61.5
2019-03-26T10:50:15.298Z,61.4
2019-03-26T10:51:06.037Z,61.5
2019-03-26T10:51:55.887Z,61.8
2019-03-26T10:52:45.869Z,62.3
2019-03-26T10:53:36.241Z,62.5
2019-03-26T10:54:25.942Z,61.7
2019-03-26T10:55:15.855Z,61.7
2019-03-26T10:56:38.444Z,62.3
2019-03-26T10:56:55.849Z,61.4
2019-03-26T10:57:45.847Z,61.8
2019-03-26T10:58:35.859Z,61.8
2019-03-26T10:59:25.867Z,62.2
2019-03-26T11:00:15.859Z,62.6
2019-03-26T11:01:05.971Z,62.4
2019-03-26T11:01:55.848Z,63.4
2019-03-26T11:02:45.889Z,62.9
2019-03-26T11:03:36.387Z,62.5
2019-03-26T11:04:25.939Z,62.5
2019-03-26T11:05:15.871Z,62.3
2019-03-26T11:06:05.878Z,61.8
2019-03-26T11:06:55.851Z,60.6
2019-03-26T11:07:45.942Z,60.5
2019-03-26T11:08:36.314Z,60.8
2019-03-26T11:09:27.242Z,59.4
2019-03-26T11:10:15.870Z,59.2